sensor_id;sensor_type;location;lat;lon;timestamp;temperature;humidity
4461;DHT22;2243;48.812;9.232;2024-01-10T00:00:25;-2.20;99.90
4461;DHT22;2243;48.812;9.232;2024-01-10T00:02:56;-2.10;99.90
4461;DHT22;2243;48.812;9.232;2024-01-10T00:05:27;-2.10;99.90
4461;DHT22;2243;48.812;9.232;2024-01-10T00:07:58;-2.20;99.90
4461;DHT22;2243;48.812;9.232;2024-01-10T00:10:29;-2.10;99.90
4461;DHT22;2243;48.812;9.232;2024-01-10T00:13:00;-2.00;99.90
4461;DHT22;2243;48.812;9.232;2024-01-10T00:15:31;-2.00;99.90
4461;DHT22;2243;48.812;9.232;2024-01-10T00:18:02;-2.00;99.90
4461;DHT22;2243;48.812;9.232;2024-01-10T00:20:33;-2.00;99.90
4461;DHT22;2243;48.812;9.232;2024-01-10T00:23:05;-2.00;99.90
4461;DHT22;2243;48.812;9.232;2024-01-10T00:25:39;-2.00;99.90
4461;DHT22;2243;48.812;9.232;2024-01-10T00:28:10;-1.90;99.90
4461;DHT22;2243;48.812;9.232;2024-01-10T00:30:41;-1.90;99.90
4461;DHT22;2243;48.812;9.232;2024-01-10T00:33:12;-1.90;99.90
4461;DHT22;2243;48.812;9.232;2024-01-10T00:35:49;-2.00;99.90
4461;DHT22;2243;48.812;9.232;2024-01-10T00:38:19;-2.00;99.90
4461;DHT22;2243;48.812;9.232;2024-01-10T00:40:50;-2.00;99.90
4461;DHT22;2243;48.812;9.232;2024-01-10T00:43:21;-2.00;99.90
4461;DHT22;2243;48.812;9.232;2024-01-10T00:45:54;-1.90;99.90
4461;DHT22;2243;48.812;9.232;2024-01-10T00:48:25;-1.90;99.90
4461;DHT22;2243;48.812;9.232;2024-01-10T00:50:56;-2.00;99.90
4461;DHT22;2243;48.812;9.232;2024-01-10T00:53:27;-2.00;99.90
4461;DHT22;2243;48.812;9.232;2024-01-10T00:55:58;-1.80;99.90
4461;DHT22;2243;48.812;9.232;2024-01-10T00:58:29;-1.80;99.90
4461;DHT22;2243;48.812;9.232;2024-01-10T01:01:00;-1.80;99.90
4461;DHT22;2243;48.812;9.232;2024-01-10T01:03:31;-1.90;99.90
4461;DHT22;2243;48.812;9.232;2024-01-10T01:06:02;-2.00;99.90
4461;DHT22;2243;48.812;9.232;2024-01-10T01:08:34;-2.00;99.90
4461;DHT22;2243;48.812;9.232;2024-01-10T01:11:04;-2.00;99.90
4461;DHT22;2243;48.812;9.232;2024-01-10T01:13:35;-1.90;99.90
4461;DHT22;2243;48.812;9.232;2024-01-10T01:16:06;-1.90;99.90
4461;DHT22;2243;48.812;9.232;2024-01-10T01:18:37;-1.90;99.90
4461;DHT22;2243;48.812;9.232;2024-01-10T01:21:08;-1.90;99.90
4461;DHT22;2243;48.812;9.232;2024-01-10T01:23:39;-1.90;99.90
4461;DHT22;2243;48.812;9.232;2024-01-10T01:26:12;-1.90;99.90
4461;DHT22;2243;48.812;9.232;2024-01-10T01:28:45;-1.80;99.90
4461;DHT22;2243;48.812;9.232;2024-01-10T01:31:16;-1.90;99.90
4461;DHT22;2243;48.812;9.232;2024-01-10T01:33:47;-1.90;99.90
4461;DHT22;2243;48.812;9.232;2024-01-10T01:36:18;-1.90;99.90
4461;DHT22;2243;48.812;9.232;2024-01-10T01:38:49;-1.90;99.90
4461;DHT22;2243;48.812;9.232;2024-01-10T01:41:20;-2.10;99.90
4461;DHT22;2243;48.812;9.232;2024-01-10T01:43:51;-2.00;99.90
4461;DHT22;2243;48.812;9.232;2024-01-10T01:46:22;-2.00;99.90
4461;DHT22;2243;48.812;9.232;2024-01-10T01:48:53;-1.90;99.90
4461;DHT22;2243;48.812;9.232;2024-01-10T01:51:27;-2.00;99.90
4461;DHT22;2243;48.812;9.232;2024-01-10T01:53:59;-1.90;99.90
4461;DHT22;2243;48.812;9.232;2024-01-10T01:56:30;-2.00;99.90
4461;DHT22;2243;48.812;9.232;2024-01-10T01:59:02;-1.90;99.90
4461;DHT22;2243;48.812;9.232;2024-01-10T02:01:34;-1.80;99.90
4461;DHT22;2243;48.812;9.232;2024-01-10T02:04:06;-1.80;99.90
4461;DHT22;2243;48.812;9.232;2024-01-10T02:06:37;-1.80;99.90
4461;DHT22;2243;48.812;9.232;2024-01-10T02:09:09;-1.70;99.90
4461;DHT22;2243;48.812;9.232;2024-01-10T02:11:40;-1.70;99.90
4461;DHT22;2243;48.812;9.232;2024-01-10T02:14:12;-1.70;99.90
4461;DHT22;2243;48.812;9.232;2024-01-10T02:16:43;-1.70;99.90
4461;DHT22;2243;48.812;9.232;2024-01-10T02:19:21;-1.70;99.90
4461;DHT22;2243;48.812;9.232;2024-01-10T02:21:53;-1.70;99.90
4461;DHT22;2243;48.812;9.232;2024-01-10T02:24:24;-1.70;99.90
4461;DHT22;2243;48.812;9.232;2024-01-10T02:26:56;-1.70;99.90
4461;DHT22;2243;48.812;9.232;2024-01-10T02:29:27;-1.70;99.90
4461;DHT22;2243;48.812;9.232;2024-01-10T02:31:58;-1.90;99.90
4461;DHT22;2243;48.812;9.232;2024-01-10T02:34:30;-1.90;99.90
4461;DHT22;2243;48.812;9.232;2024-01-10T02:37:01;-1.90;99.90
4461;DHT22;2243;48.812;9.232;2024-01-10T02:39:32;-2.00;99.90
4461;DHT22;2243;48.812;9.232;2024-01-10T02:42:03;-2.00;99.90
4461;DHT22;2243;48.812;9.232;2024-01-10T02:44:34;-2.00;99.90
4461;DHT22;2243;48.812;9.232;2024-01-10T02:47:06;-2.10;99.90
4461;DHT22;2243;48.812;9.232;2024-01-10T02:49:38;-2.10;99.90
4461;DHT22;2243;48.812;9.232;2024-01-10T02:52:09;-2.10;99.90
4461;DHT22;2243;48.812;9.232;2024-01-10T02:54:40;-2.20;99.90
4461;DHT22;2243;48.812;9.232;2024-01-10T02:57:10;-2.10;99.90
4461;DHT22;2243;48.812;9.232;2024-01-10T02:59:41;-2.10;99.90
4461;DHT22;2243;48.812;9.232;2024-01-10T03:02:12;-2.20;99.90
4461;DHT22;2243;48.812;9.232;2024-01-10T03:04:44;-2.30;99.90
4461;DHT22;2243;48.812;9.232;2024-01-10T03:07:15;-2.20;99.90
4461;DHT22;2243;48.812;9.232;2024-01-10T03:09:46;-2.30;99.90
4461;DHT22;2243;48.812;9.232;2024-01-10T03:12:17;-2.30;99.90
4461;DHT22;2243;48.812;9.232;2024-01-10T03:14:48;-2.30;99.90
4461;DHT22;2243;48.812;9.232;2024-01-10T03:17:19;-2.20;99.90
4461;DHT22;2243;48.812;9.232;2024-01-10T03:19:50;-2.20;99.90
4461;DHT22;2243;48.812;9.232;2024-01-10T03:22:22;-2.10;99.90
4461;DHT22;2243;48.812;9.232;2024-01-10T03:24:52;-2.10;99.90
4461;DHT22;2243;48.812;9.232;2024-01-10T03:27:23;-2.10;99.90
4461;DHT22;2243;48.812;9.232;2024-01-10T03:29:54;-2.10;99.90
4461;DHT22;2243;48.812;9.232;2024-01-10T03:32:25;-2.10;99.90
4461;DHT22;2243;48.812;9.232;2024-01-10T03:34:57;-2.00;99.90
4461;DHT22;2243;48.812;9.232;2024-01-10T03:37:28;-2.00;99.90
4461;DHT22;2243;48.812;9.232;2024-01-10T03:39:59;-2.00;99.90
4461;DHT22;2243;48.812;9.232;2024-01-10T03:42:30;-1.90;99.90
4461;DHT22;2243;48.812;9.232;2024-01-10T03:45:01;-2.00;99.90
4461;DHT22;2243;48.812;9.232;2024-01-10T03:47:32;-2.00;99.90
4461;DHT22;2243;48.812;9.232;2024-01-10T03:50:03;-2.00;99.90
4461;DHT22;2243;48.812;9.232;2024-01-10T03:52:34;-2.00;99.90
4461;DHT22;2243;48.812;9.232;2024-01-10T03:55:06;-2.00;99.90
4461;DHT22;2243;48.812;9.232;2024-01-10T03:57:37;-1.90;99.90
4461;DHT22;2243;48.812;9.232;2024-01-10T04:00:08;-1.90;99.90
4461;DHT22;2243;48.812;9.232;2024-01-10T04:02:40;-2.00;99.90
4461;DHT22;2243;48.812;9.232;2024-01-10T04:05:11;-2.00;99.90
4461;DHT22;2243;48.812;9.232;2024-01-10T04:07:43;-1.90;99.90
4461;DHT22;2243;48.812;9.232;2024-01-10T04:10:14;-2.00;99.90
4461;DHT22;2243;48.812;9.232;2024-01-10T04:12:46;-1.90;99.90
4461;DHT22;2243;48.812;9.232;2024-01-10T04:15:17;-1.90;99.90
4461;DHT22;2243;48.812;9.232;2024-01-10T04:17:50;-1.90;99.90
4461;DHT22;2243;48.812;9.232;2024-01-10T04:20:21;-1.90;99.90
4461;DHT22;2243;48.812;9.232;2024-01-10T04:22:52;-1.90;99.90
4461;DHT22;2243;48.812;9.232;2024-01-10T04:25:24;-1.80;99.90
4461;DHT22;2243;48.812;9.232;2024-01-10T04:27:54;-1.80;99.90
4461;DHT22;2243;48.812;9.232;2024-01-10T04:30:26;-1.80;99.90
4461;DHT22;2243;48.812;9.232;2024-01-10T04:32:57;-1.70;99.90
4461;DHT22;2243;48.812;9.232;2024-01-10T04:35:28;-1.70;99.90
4461;DHT22;2243;48.812;9.232;2024-01-10T04:37:59;-1.70;99.90
4461;DHT22;2243;48.812;9.232;2024-01-10T04:40:30;-1.80;99.90
4461;DHT22;2243;48.812;9.232;2024-01-10T04:43:01;-1.80;99.90
4461;DHT22;2243;48.812;9.232;2024-01-10T04:45:32;-1.80;99.90
4461;DHT22;2243;48.812;9.232;2024-01-10T04:48:03;-1.70;99.90
4461;DHT22;2243;48.812;9.232;2024-01-10T04:50:35;-1.70;99.90
4461;DHT22;2243;48.812;9.232;2024-01-10T04:53:06;-1.60;99.90
4461;DHT22;2243;48.812;9.232;2024-01-10T04:55:37;-1.60;99.90
4461;DHT22;2243;48.812;9.232;2024-01-10T04:58:08;-1.60;99.90
4461;DHT22;2243;48.812;9.232;2024-01-10T05:00:40;-1.60;99.90
4461;DHT22;2243;48.812;9.232;2024-01-10T05:03:11;-1.50;99.90
4461;DHT22;2243;48.812;9.232;2024-01-10T05:05:42;-1.50;99.90
4461;DHT22;2243;48.812;9.232;2024-01-10T05:08:13;-1.60;99.90
4461;DHT22;2243;48.812;9.232;2024-01-10T05:10:44;-1.50;99.90
4461;DHT22;2243;48.812;9.232;2024-01-10T05:13:15;-1.50;99.90
4461;DHT22;2243;48.812;9.232;2024-01-10T05:15:46;-1.50;99.90
4461;DHT22;2243;48.812;9.232;2024-01-10T05:18:18;-1.50;99.90
4461;DHT22;2243;48.812;9.232;2024-01-10T05:20:49;-1.50;99.90
4461;DHT22;2243;48.812;9.232;2024-01-10T05:23:20;-1.50;99.90
4461;DHT22;2243;48.812;9.232;2024-01-10T05:25:51;-1.40;99.90
4461;DHT22;2243;48.812;9.232;2024-01-10T05:28:22;-1.40;99.90
4461;DHT22;2243;48.812;9.232;2024-01-10T05:30:54;-1.40;99.90
4461;DHT22;2243;48.812;9.232;2024-01-10T05:33:25;-1.50;99.90
4461;DHT22;2243;48.812;9.232;2024-01-10T05:35:56;-1.40;99.90
4461;DHT22;2243;48.812;9.232;2024-01-10T05:38:28;-1.30;99.90
4461;DHT22;2243;48.812;9.232;2024-01-10T05:40:59;-1.40;99.90
4461;DHT22;2243;48.812;9.232;2024-01-10T05:43:30;-1.40;99.90
4461;DHT22;2243;48.812;9.232;2024-01-10T05:46:02;-1.40;99.90
4461;DHT22;2243;48.812;9.232;2024-01-10T05:48:35;-1.50;99.90
4461;DHT22;2243;48.812;9.232;2024-01-10T05:51:07;-1.60;99.90
4461;DHT22;2243;48.812;9.232;2024-01-10T05:53:38;-1.60;99.90
4461;DHT22;2243;48.812;9.232;2024-01-10T05:56:09;-1.60;99.90
4461;DHT22;2243;48.812;9.232;2024-01-10T05:58:40;-1.70;99.90
4461;DHT22;2243;48.812;9.232;2024-01-10T06:01:11;-1.60;99.90
4461;DHT22;2243;48.812;9.232;2024-01-10T06:03:43;-1.70;99.90
4461;DHT22;2243;48.812;9.232;2024-01-10T06:06:14;-1.70;99.90
4461;DHT22;2243;48.812;9.232;2024-01-10T06:08:45;-1.80;99.90
4461;DHT22;2243;48.812;9.232;2024-01-10T06:11:16;-1.70;99.90
4461;DHT22;2243;48.812;9.232;2024-01-10T06:13:47;-1.70;99.90
4461;DHT22;2243;48.812;9.232;2024-01-10T06:16:26;-1.80;99.90
4461;DHT22;2243;48.812;9.232;2024-01-10T06:18:58;-1.80;99.90
4461;DHT22;2243;48.812;9.232;2024-01-10T06:21:29;-1.90;99.90
4461;DHT22;2243;48.812;9.232;2024-01-10T06:24:00;-1.80;99.90
4461;DHT22;2243;48.812;9.232;2024-01-10T06:26:31;-1.90;99.90
4461;DHT22;2243;48.812;9.232;2024-01-10T06:29:02;-1.90;99.90
4461;DHT22;2243;48.812;9.232;2024-01-10T06:31:33;-1.90;99.90
4461;DHT22;2243;48.812;9.232;2024-01-10T06:34:04;-1.90;99.90
4461;DHT22;2243;48.812;9.232;2024-01-10T06:36:36;-1.90;99.90
4461;DHT22;2243;48.812;9.232;2024-01-10T06:39:09;-2.00;99.90
4461;DHT22;2243;48.812;9.232;2024-01-10T06:41:49;-2.00;99.90
4461;DHT22;2243;48.812;9.232;2024-01-10T06:44:21;-2.00;99.90
4461;DHT22;2243;48.812;9.232;2024-01-10T06:46:52;-2.10;99.90
4461;DHT22;2243;48.812;9.232;2024-01-10T06:49:23;-2.10;99.90
4461;DHT22;2243;48.812;9.232;2024-01-10T06:51:54;-2.20;99.90
4461;DHT22;2243;48.812;9.232;2024-01-10T06:54:25;-2.10;99.90
4461;DHT22;2243;48.812;9.232;2024-01-10T06:56:56;-2.10;99.90
4461;DHT22;2243;48.812;9.232;2024-01-10T06:59:27;-2.10;99.90
4461;DHT22;2243;48.812;9.232;2024-01-10T07:01:58;-2.20;99.90
4461;DHT22;2243;48.812;9.232;2024-01-10T07:04:32;-2.20;99.90
4461;DHT22;2243;48.812;9.232;2024-01-10T07:07:03;-2.20;99.90
4461;DHT22;2243;48.812;9.232;2024-01-10T07:09:34;-2.20;99.90
4461;DHT22;2243;48.812;9.232;2024-01-10T07:12:07;-2.30;99.90
4461;DHT22;2243;48.812;9.232;2024-01-10T07:14:38;-2.40;99.90
4461;DHT22;2243;48.812;9.232;2024-01-10T07:17:09;-2.40;99.90
4461;DHT22;2243;48.812;9.232;2024-01-10T07:19:41;-2.40;99.90
4461;DHT22;2243;48.812;9.232;2024-01-10T07:22:12;-2.30;99.90
4461;DHT22;2243;48.812;9.232;2024-01-10T07:24:43;-2.30;99.90
4461;DHT22;2243;48.812;9.232;2024-01-10T07:27:15;-2.30;99.90
4461;DHT22;2243;48.812;9.232;2024-01-10T07:29:46;-2.40;99.90
4461;DHT22;2243;48.812;9.232;2024-01-10T07:32:17;-2.50;99.90
4461;DHT22;2243;48.812;9.232;2024-01-10T07:34:48;-2.60;99.90
4461;DHT22;2243;48.812;9.232;2024-01-10T07:37:19;-2.60;99.90
4461;DHT22;2243;48.812;9.232;2024-01-10T07:39:51;-2.60;99.90
4461;DHT22;2243;48.812;9.232;2024-01-10T07:42:23;-2.70;99.90
4461;DHT22;2243;48.812;9.232;2024-01-10T07:44:55;-2.70;99.90
4461;DHT22;2243;48.812;9.232;2024-01-10T07:47:26;-2.70;99.90
4461;DHT22;2243;48.812;9.232;2024-01-10T07:49:57;-2.80;99.90
4461;DHT22;2243;48.812;9.232;2024-01-10T07:52:29;-2.70;99.90
4461;DHT22;2243;48.812;9.232;2024-01-10T07:55:00;-2.70;99.90
4461;DHT22;2243;48.812;9.232;2024-01-10T07:57:32;-2.70;99.90
4461;DHT22;2243;48.812;9.232;2024-01-10T08:00:07;-2.70;99.90
4461;DHT22;2243;48.812;9.232;2024-01-10T08:02:42;-2.70;99.90
4461;DHT22;2243;48.812;9.232;2024-01-10T08:05:13;-2.60;99.90
4461;DHT22;2243;48.812;9.232;2024-01-10T08:07:44;-2.60;99.90
4461;DHT22;2243;48.812;9.232;2024-01-10T08:10:15;-2.50;99.90
4461;DHT22;2243;48.812;9.232;2024-01-10T08:12:46;-2.40;99.90
4461;DHT22;2243;48.812;9.232;2024-01-10T08:15:17;-2.30;99.90
4461;DHT22;2243;48.812;9.232;2024-01-10T08:17:48;-2.20;99.90
4461;DHT22;2243;48.812;9.232;2024-01-10T08:20:20;-2.10;99.90
4461;DHT22;2243;48.812;9.232;2024-01-10T08:22:52;-2.00;99.90
4461;DHT22;2243;48.812;9.232;2024-01-10T08:25:24;-2.00;99.90
4461;DHT22;2243;48.812;9.232;2024-01-10T08:27:55;-1.90;99.90
4461;DHT22;2243;48.812;9.232;2024-01-10T08:30:28;-1.80;99.90
4461;DHT22;2243;48.812;9.232;2024-01-10T08:32:59;-1.70;99.90
4461;DHT22;2243;48.812;9.232;2024-01-10T08:35:30;-1.60;99.90
4461;DHT22;2243;48.812;9.232;2024-01-10T08:38:02;-1.50;99.90
4461;DHT22;2243;48.812;9.232;2024-01-10T08:40:36;-1.50;99.90
4461;DHT22;2243;48.812;9.232;2024-01-10T08:43:08;-1.30;99.90
4461;DHT22;2243;48.812;9.232;2024-01-10T08:45:39;-1.30;99.90
4461;DHT22;2243;48.812;9.232;2024-01-10T08:48:10;-1.30;99.90
4461;DHT22;2243;48.812;9.232;2024-01-10T08:50:44;-1.40;99.90
4461;DHT22;2243;48.812;9.232;2024-01-10T08:53:15;-1.40;99.90
4461;DHT22;2243;48.812;9.232;2024-01-10T08:55:46;-1.20;99.90
4461;DHT22;2243;48.812;9.232;2024-01-10T08:58:18;-1.20;99.90
4461;DHT22;2243;48.812;9.232;2024-01-10T09:00:49;-1.20;99.90
4461;DHT22;2243;48.812;9.232;2024-01-10T09:03:21;-1.20;99.90
4461;DHT22;2243;48.812;9.232;2024-01-10T09:05:52;-1.20;99.90
4461;DHT22;2243;48.812;9.232;2024-01-10T09:08:37;-1.10;99.90
4461;DHT22;2243;48.812;9.232;2024-01-10T09:11:10;-1.00;99.90
4461;DHT22;2243;48.812;9.232;2024-01-10T09:13:41;-1.10;99.90
4461;DHT22;2243;48.812;9.232;2024-01-10T09:16:12;-1.10;99.90
4461;DHT22;2243;48.812;9.232;2024-01-10T09:18:44;-1.10;99.90
4461;DHT22;2243;48.812;9.232;2024-01-10T09:21:18;-1.20;99.90
4461;DHT22;2243;48.812;9.232;2024-01-10T09:23:50;-1.00;99.90
4461;DHT22;2243;48.812;9.232;2024-01-10T09:26:22;-0.80;99.90
4461;DHT22;2243;48.812;9.232;2024-01-10T09:28:53;-0.80;99.90
4461;DHT22;2243;48.812;9.232;2024-01-10T09:31:24;-0.90;99.90
4461;DHT22;2243;48.812;9.232;2024-01-10T09:33:56;-1.10;99.90
4461;DHT22;2243;48.812;9.232;2024-01-10T09:36:28;-1.10;99.90
4461;DHT22;2243;48.812;9.232;2024-01-10T09:38:59;-1.00;99.90
4461;DHT22;2243;48.812;9.232;2024-01-10T09:41:31;-1.10;99.90
4461;DHT22;2243;48.812;9.232;2024-01-10T09:44:05;-1.10;99.90
4461;DHT22;2243;48.812;9.232;2024-01-10T09:46:38;-1.00;99.90
4461;DHT22;2243;48.812;9.232;2024-01-10T09:49:11;-1.00;99.90
4461;DHT22;2243;48.812;9.232;2024-01-10T09:51:43;-0.90;99.90
4461;DHT22;2243;48.812;9.232;2024-01-10T09:54:16;-0.80;99.90
4461;DHT22;2243;48.812;9.232;2024-01-10T09:56:50;-0.60;99.90
4461;DHT22;2243;48.812;9.232;2024-01-10T09:59:21;-0.60;99.90
4461;DHT22;2243;48.812;9.232;2024-01-10T10:01:52;-0.70;99.90
4461;DHT22;2243;48.812;9.232;2024-01-10T10:04:27;-0.60;99.90
4461;DHT22;2243;48.812;9.232;2024-01-10T10:06:59;-0.60;99.90
4461;DHT22;2243;48.812;9.232;2024-01-10T10:09:34;-0.50;99.90
4461;DHT22;2243;48.812;9.232;2024-01-10T10:12:05;-0.60;99.90
4461;DHT22;2243;48.812;9.232;2024-01-10T10:14:37;-0.60;99.90
4461;DHT22;2243;48.812;9.232;2024-01-10T10:17:15;-0.40;99.90
4461;DHT22;2243;48.812;9.232;2024-01-10T10:19:47;-0.40;99.90
4461;DHT22;2243;48.812;9.232;2024-01-10T10:22:18;-0.20;99.90
4461;DHT22;2243;48.812;9.232;2024-01-10T10:24:49;-0.10;99.90
4461;DHT22;2243;48.812;9.232;2024-01-10T10:27:20;-0.20;99.90
4461;DHT22;2243;48.812;9.232;2024-01-10T10:29:52;-0.40;99.90
4461;DHT22;2243;48.812;9.232;2024-01-10T10:32:23;-0.20;99.90
4461;DHT22;2243;48.812;9.232;2024-01-10T10:34:56;-0.20;99.90
4461;DHT22;2243;48.812;9.232;2024-01-10T10:37:27;0.00;99.90
4461;DHT22;2243;48.812;9.232;2024-01-10T10:39:58;0.20;99.90
4461;DHT22;2243;48.812;9.232;2024-01-10T10:42:31;0.60;99.90
4461;DHT22;2243;48.812;9.232;2024-01-10T10:45:06;1.10;99.80
4461;DHT22;2243;48.812;9.232;2024-01-10T10:47:39;1.30;99.40
4461;DHT22;2243;48.812;9.232;2024-01-10T10:50:21;1.30;99.40
4461;DHT22;2243;48.812;9.232;2024-01-10T10:52:55;1.50;99.20
4461;DHT22;2243;48.812;9.232;2024-01-10T10:55:29;1.50;99.00
4461;DHT22;2243;48.812;9.232;2024-01-10T10:58:01;1.40;99.10
4461;DHT22;2243;48.812;9.232;2024-01-10T11:00:42;1.40;99.10
4461;DHT22;2243;48.812;9.232;2024-01-10T11:03:14;1.60;98.90
4461;DHT22;2243;48.812;9.232;2024-01-10T11:05:47;1.60;98.60
4461;DHT22;2243;48.812;9.232;2024-01-10T11:08:20;1.20;98.80
4461;DHT22;2243;48.812;9.232;2024-01-10T11:10:54;1.20;99.50
4461;DHT22;2243;48.812;9.232;2024-01-10T11:13:38;1.30;99.10
4461;DHT22;2243;48.812;9.232;2024-01-10T11:25:21;1.50;99.50
4461;DHT22;2243;48.812;9.232;2024-01-10T11:27:53;1.50;99.30
4461;DHT22;2243;48.812;9.232;2024-01-10T11:30:37;1.90;98.70
4461;DHT22;2243;48.812;9.232;2024-01-10T11:33:33;1.80;98.90
4461;DHT22;2243;48.812;9.232;2024-01-10T11:36:16;1.60;99.10
4461;DHT22;2243;48.812;9.232;2024-01-10T11:41:32;1.70;99.30
4461;DHT22;2243;48.812;9.232;2024-01-10T11:46:52;2.10;98.20
4461;DHT22;2243;48.812;9.232;2024-01-10T11:49:24;2.20;98.60
4461;DHT22;2243;48.812;9.232;2024-01-10T11:51:57;2.40;98.10
4461;DHT22;2243;48.812;9.232;2024-01-10T11:54:44;2.30;98.20
4461;DHT22;2243;48.812;9.232;2024-01-10T11:57:25;2.20;98.40
4461;DHT22;2243;48.812;9.232;2024-01-10T12:00:01;2.30;98.10
4461;DHT22;2243;48.812;9.232;2024-01-10T12:02:36;2.30;98.10
4461;DHT22;2243;48.812;9.232;2024-01-10T12:05:08;2.50;98.00
4461;DHT22;2243;48.812;9.232;2024-01-10T12:07:40;2.60;98.00
4461;DHT22;2243;48.812;9.232;2024-01-10T12:10:11;2.50;98.00
4461;DHT22;2243;48.812;9.232;2024-01-10T12:12:42;2.40;98.20
4461;DHT22;2243;48.812;9.232;2024-01-10T12:15:13;2.40;97.80
4461;DHT22;2243;48.812;9.232;2024-01-10T12:17:45;2.40;97.90
4461;DHT22;2243;48.812;9.232;2024-01-10T12:20:16;2.40;98.20
4461;DHT22;2243;48.812;9.232;2024-01-10T12:22:47;2.40;97.90
4461;DHT22;2243;48.812;9.232;2024-01-10T12:25:18;2.40;98.40
4461;DHT22;2243;48.812;9.232;2024-01-10T12:27:50;2.70;98.20
4461;DHT22;2243;48.812;9.232;2024-01-10T12:30:21;2.70;97.70
4461;DHT22;2243;48.812;9.232;2024-01-10T12:32:52;2.60;98.20
4461;DHT22;2243;48.812;9.232;2024-01-10T12:35:23;2.70;98.30
4461;DHT22;2243;48.812;9.232;2024-01-10T12:37:55;3.00;98.20
4461;DHT22;2243;48.812;9.232;2024-01-10T12:40:27;3.20;97.20
4461;DHT22;2243;48.812;9.232;2024-01-10T12:43:02;3.30;97.30
4461;DHT22;2243;48.812;9.232;2024-01-10T12:45:34;3.30;97.40
4461;DHT22;2243;48.812;9.232;2024-01-10T12:48:06;3.50;97.10
4461;DHT22;2243;48.812;9.232;2024-01-10T12:50:38;3.50;97.40
4461;DHT22;2243;48.812;9.232;2024-01-10T12:53:10;3.30;96.90
4461;DHT22;2243;48.812;9.232;2024-01-10T12:55:41;3.30;96.90
4461;DHT22;2243;48.812;9.232;2024-01-10T12:58:12;3.50;96.90
4461;DHT22;2243;48.812;9.232;2024-01-10T13:00:43;3.40;97.10
4461;DHT22;2243;48.812;9.232;2024-01-10T13:03:14;3.30;97.20
4461;DHT22;2243;48.812;9.232;2024-01-10T13:05:45;3.10;97.20
4461;DHT22;2243;48.812;9.232;2024-01-10T13:08:17;3.20;97.50
4461;DHT22;2243;48.812;9.232;2024-01-10T13:10:49;3.50;97.00
4461;DHT22;2243;48.812;9.232;2024-01-10T13:13:21;3.60;97.10
4461;DHT22;2243;48.812;9.232;2024-01-10T13:15:52;4.00;96.50
4461;DHT22;2243;48.812;9.232;2024-01-10T13:18:23;4.10;96.20
4461;DHT22;2243;48.812;9.232;2024-01-10T13:20:55;4.00;96.40
4461;DHT22;2243;48.812;9.232;2024-01-10T13:23:27;4.10;96.50
4461;DHT22;2243;48.812;9.232;2024-01-10T13:25:58;4.00;96.60
4461;DHT22;2243;48.812;9.232;2024-01-10T13:28:29;4.20;96.20
4461;DHT22;2243;48.812;9.232;2024-01-10T13:31:01;4.30;96.40
4461;DHT22;2243;48.812;9.232;2024-01-10T13:33:32;4.10;96.50
4461;DHT22;2243;48.812;9.232;2024-01-10T13:36:04;4.20;96.40
4461;DHT22;2243;48.812;9.232;2024-01-10T13:38:35;4.00;96.30
4461;DHT22;2243;48.812;9.232;2024-01-10T13:41:07;4.00;96.50
4461;DHT22;2243;48.812;9.232;2024-01-10T13:43:38;3.90;96.40
4461;DHT22;2243;48.812;9.232;2024-01-10T13:46:11;3.80;96.40
4461;DHT22;2243;48.812;9.232;2024-01-10T13:48:43;3.50;96.80
4461;DHT22;2243;48.812;9.232;2024-01-10T13:51:14;3.40;97.20
4461;DHT22;2243;48.812;9.232;2024-01-10T13:53:45;3.40;97.50
4461;DHT22;2243;48.812;9.232;2024-01-10T13:56:16;3.40;97.40
4461;DHT22;2243;48.812;9.232;2024-01-10T13:58:47;3.20;97.60
4461;DHT22;2243;48.812;9.232;2024-01-10T14:01:18;2.90;97.60
4461;DHT22;2243;48.812;9.232;2024-01-10T14:03:49;3.00;97.90
4461;DHT22;2243;48.812;9.232;2024-01-10T14:06:20;2.80;98.10
4461;DHT22;2243;48.812;9.232;2024-01-10T14:08:51;2.80;98.00
4461;DHT22;2243;48.812;9.232;2024-01-10T14:11:24;2.80;98.50
4461;DHT22;2243;48.812;9.232;2024-01-10T14:13:55;2.90;98.20
4461;DHT22;2243;48.812;9.232;2024-01-10T14:16:26;2.90;98.20
4461;DHT22;2243;48.812;9.232;2024-01-10T14:18:58;2.90;98.10
4461;DHT22;2243;48.812;9.232;2024-01-10T14:21:29;2.80;98.30
4461;DHT22;2243;48.812;9.232;2024-01-10T14:24:02;2.70;98.80
4461;DHT22;2243;48.812;9.232;2024-01-10T14:26:34;2.70;98.90
4461;DHT22;2243;48.812;9.232;2024-01-10T14:29:06;2.60;99.00
4461;DHT22;2243;48.812;9.232;2024-01-10T14:31:37;2.70;98.70
4461;DHT22;2243;48.812;9.232;2024-01-10T14:34:28;2.70;98.60
4461;DHT22;2243;48.812;9.232;2024-01-10T14:36:59;2.60;98.90
4461;DHT22;2243;48.812;9.232;2024-01-10T14:39:30;2.60;99.00
4461;DHT22;2243;48.812;9.232;2024-01-10T14:42:04;2.60;99.10
4461;DHT22;2243;48.812;9.232;2024-01-10T14:44:37;2.60;99.10
4461;DHT22;2243;48.812;9.232;2024-01-10T14:47:08;2.50;99.20
4461;DHT22;2243;48.812;9.232;2024-01-10T14:49:42;2.40;99.30
4461;DHT22;2243;48.812;9.232;2024-01-10T14:52:13;2.30;99.60
4461;DHT22;2243;48.812;9.232;2024-01-10T14:54:44;2.30;99.50
4461;DHT22;2243;48.812;9.232;2024-01-10T14:57:15;2.20;99.90
4461;DHT22;2243;48.812;9.232;2024-01-10T14:59:47;2.30;99.90
4461;DHT22;2243;48.812;9.232;2024-01-10T15:02:19;2.20;99.70
4461;DHT22;2243;48.812;9.232;2024-01-10T15:04:50;2.20;99.90
4461;DHT22;2243;48.812;9.232;2024-01-10T15:07:22;2.20;99.90
4461;DHT22;2243;48.812;9.232;2024-01-10T15:09:53;2.20;99.90
4461;DHT22;2243;48.812;9.232;2024-01-10T15:12:24;2.10;99.80
4461;DHT22;2243;48.812;9.232;2024-01-10T15:14:56;2.10;99.90
4461;DHT22;2243;48.812;9.232;2024-01-10T15:17:30;2.00;99.90
4461;DHT22;2243;48.812;9.232;2024-01-10T15:20:02;2.10;99.90
4461;DHT22;2243;48.812;9.232;2024-01-10T15:22:34;1.90;99.90
4461;DHT22;2243;48.812;9.232;2024-01-10T15:25:08;1.90;99.90
4461;DHT22;2243;48.812;9.232;2024-01-10T15:27:40;1.90;99.90
4461;DHT22;2243;48.812;9.232;2024-01-10T15:30:11;1.90;99.90
4461;DHT22;2243;48.812;9.232;2024-01-10T15:32:48;1.90;99.90
4461;DHT22;2243;48.812;9.232;2024-01-10T15:35:20;1.90;99.90
4461;DHT22;2243;48.812;9.232;2024-01-10T15:37:51;1.80;99.90
4461;DHT22;2243;48.812;9.232;2024-01-10T15:40:23;1.80;99.90
4461;DHT22;2243;48.812;9.232;2024-01-10T15:42:55;1.90;99.90
4461;DHT22;2243;48.812;9.232;2024-01-10T15:45:26;1.90;99.90
4461;DHT22;2243;48.812;9.232;2024-01-10T15:47:57;1.80;99.90
4461;DHT22;2243;48.812;9.232;2024-01-10T15:50:28;1.70;99.90
4461;DHT22;2243;48.812;9.232;2024-01-10T15:52:59;1.70;99.90
4461;DHT22;2243;48.812;9.232;2024-01-10T15:55:30;1.60;99.90
4461;DHT22;2243;48.812;9.232;2024-01-10T15:58:05;1.60;99.90
4461;DHT22;2243;48.812;9.232;2024-01-10T16:00:38;1.50;99.90
4461;DHT22;2243;48.812;9.232;2024-01-10T16:03:13;1.40;99.90
4461;DHT22;2243;48.812;9.232;2024-01-10T16:05:44;1.30;99.90
4461;DHT22;2243;48.812;9.232;2024-01-10T16:08:15;1.20;99.90
4461;DHT22;2243;48.812;9.232;2024-01-10T16:10:46;1.10;99.90
4461;DHT22;2243;48.812;9.232;2024-01-10T16:13:17;1.00;99.90
4461;DHT22;2243;48.812;9.232;2024-01-10T16:15:53;1.00;99.90
4461;DHT22;2243;48.812;9.232;2024-01-10T16:18:25;0.90;99.90
4461;DHT22;2243;48.812;9.232;2024-01-10T16:20:56;0.80;99.90
4461;DHT22;2243;48.812;9.232;2024-01-10T16:23:27;0.70;99.90
4461;DHT22;2243;48.812;9.232;2024-01-10T16:25:58;0.60;99.90
4461;DHT22;2243;48.812;9.232;2024-01-10T16:28:29;0.60;99.90
4461;DHT22;2243;48.812;9.232;2024-01-10T16:31:00;0.60;99.90
4461;DHT22;2243;48.812;9.232;2024-01-10T16:33:31;0.50;99.90
4461;DHT22;2243;48.812;9.232;2024-01-10T16:36:02;0.50;99.90
4461;DHT22;2243;48.812;9.232;2024-01-10T16:38:34;0.40;99.90
4461;DHT22;2243;48.812;9.232;2024-01-10T16:41:05;0.40;99.90
4461;DHT22;2243;48.812;9.232;2024-01-10T16:43:36;0.40;99.90
4461;DHT22;2243;48.812;9.232;2024-01-10T16:46:08;0.30;99.90
4461;DHT22;2243;48.812;9.232;2024-01-10T16:48:40;0.30;99.90
4461;DHT22;2243;48.812;9.232;2024-01-10T16:51:11;0.20;99.90